createdAt,value
2018-08-19T00:01:08.081Z,16.75
2018-08-19T00:03:36.221Z,16.74
2018-08-19T00:06:04.666Z,16.66
2018-08-19T00:08:32.793Z,16.64
2018-08-19T00:11:02.977Z,16.60
2018-08-19T00:13:31.105Z,16.56
2018-08-19T00:15:59.278Z,16.55
2018-08-19T00:18:27.425Z,16.54
2018-08-19T00:20:55.603Z,16.54
2018-08-19T00:23:23.753Z,16.52
2018-08-19T00:25:51.908Z,16.50
2018-08-19T00:28:20.844Z,16.48
2018-08-19T00:30:48.985Z,16.41
2018-08-19T00:33:17.111Z,16.39
2018-08-19T00:35:45.253Z,16.38
2018-08-19T00:38:14.881Z,16.37
2018-08-19T00:40:43.468Z,16.38
2018-08-19T00:43:12.157Z,16.41
2018-08-19T00:45:40.342Z,16.41
2018-08-19T00:48:11.082Z,16.39
2018-08-19T00:50:39.384Z,16.38
2018-08-19T00:53:08.380Z,16.36
2018-08-19T00:55:41.934Z,16.31
2018-08-19T00:58:14.959Z,16.29
2018-08-19T01:00:43.188Z,16.27
2018-08-19T01:03:11.750Z,16.27
2018-08-19T01:05:39.971Z,16.24
2018-08-19T01:08:09.097Z,16.17
2018-08-19T01:10:37.245Z,16.08
2018-08-19T01:13:05.368Z,16.07
2018-08-19T01:15:33.504Z,16.09
2018-08-19T01:18:01.649Z,16.09
2018-08-19T01:20:29.852Z,16.09
2018-08-19T01:22:57.956Z,16.04
2018-08-19T01:25:26.115Z,16.05
2018-08-19T01:27:54.245Z,16.07
2018-08-19T01:30:25.926Z,16.06
2018-08-19T01:32:54.087Z,16.03
2018-08-19T01:35:27.061Z,15.99
2018-08-19T01:37:55.170Z,15.95
2018-08-19T01:40:23.339Z,15.94
2018-08-19T01:42:51.493Z,15.93
2018-08-19T01:45:19.616Z,15.92
2018-08-19T01:47:47.757Z,15.92
2018-08-19T01:50:17.563Z,15.92
2018-08-19T01:52:48.096Z,15.88
2018-08-19T01:55:16.205Z,15.86
2018-08-19T01:57:48.446Z,15.86
2018-08-19T02:00:17.907Z,15.85
2018-08-19T02:03:03.220Z,15.82
2018-08-19T02:05:31.365Z,15.81
2018-08-19T02:08:01.933Z,15.80
2018-08-19T02:10:31.321Z,15.75
2018-08-19T02:13:00.164Z,15.72
2018-08-19T02:15:29.321Z,15.72
2018-08-19T02:17:59.572Z,15.69
2018-08-19T02:20:33.605Z,15.68
2018-08-19T02:23:03.898Z,15.68
2018-08-19T02:25:44.815Z,15.68
2018-08-19T02:28:13.601Z,15.65
2018-08-19T02:30:49.041Z,15.61
2018-08-19T02:33:17.193Z,15.57
2018-08-19T02:35:48.433Z,15.58
2018-08-19T02:38:16.589Z,15.56
2018-08-19T02:40:44.712Z,15.56
2018-08-19T02:43:12.836Z,15.56
2018-08-19T02:45:40.957Z,15.57
2018-08-19T02:48:09.114Z,15.54
2018-08-19T02:50:37.289Z,15.54
2018-08-19T02:53:05.810Z,15.49
2018-08-19T02:55:33.937Z,15.44
2018-08-19T02:58:07.380Z,15.41
2018-08-19T03:00:35.513Z,15.40
2018-08-19T03:03:03.642Z,15.37
2018-08-19T03:05:31.744Z,15.35
2018-08-19T03:08:00.213Z,15.35
2018-08-19T03:10:28.327Z,15.33
2018-08-19T03:12:56.469Z,15.29
2018-08-19T03:15:24.633Z,15.29
2018-08-19T03:17:52.757Z,15.26
2018-08-19T03:20:21.286Z,15.25
2018-08-19T03:22:49.380Z,15.18
2018-08-19T03:25:17.485Z,15.15
2018-08-19T03:27:45.606Z,15.19
2018-08-19T03:30:15.157Z,15.13
2018-08-19T03:32:49.617Z,15.12
2018-08-19T03:35:19.169Z,15.10
2018-08-19T03:37:47.670Z,15.10
2018-08-19T03:40:15.765Z,15.07
2018-08-19T03:42:43.886Z,15.06
2018-08-19T03:45:18.373Z,15.05
2018-08-19T03:47:46.902Z,15.03
2018-08-19T03:50:19.920Z,15.04
2018-08-19T03:52:48.069Z,15.06
2018-08-19T03:55:21.656Z,15.08
2018-08-19T03:57:50.200Z,15.06
2018-08-19T04:00:19.193Z,15.09
2018-08-19T04:02:47.438Z,15.08
2018-08-19T04:05:15.575Z,15.04
2018-08-19T04:07:44.267Z,15.06
2018-08-19T04:10:12.801Z,15.04
2018-08-19T04:12:40.929Z,15.06
2018-08-19T04:15:09.697Z,15.08
2018-08-19T04:17:37.801Z,15.04
2018-08-19T04:20:06.662Z,15.02
2018-08-19T04:22:34.798Z,15.04
2018-08-19T04:25:02.937Z,15.05
2018-08-19T04:27:31.054Z,15.05
2018-08-19T04:29:59.202Z,15.04
2018-08-19T04:32:30.408Z,15.05
2018-08-19T04:34:58.967Z,15.11
2018-08-19T04:37:27.316Z,15.07
2018-08-19T04:39:55.465Z,15.12
2018-08-19T04:42:23.812Z,15.19
2018-08-19T04:44:57.343Z,15.28
2018-08-19T04:47:28.789Z,15.44
2018-08-19T04:49:56.945Z,15.54
2018-08-19T04:52:25.462Z,15.61
2018-08-19T04:54:54.713Z,15.74
2018-08-19T04:57:22.922Z,15.78
2018-08-19T04:59:51.069Z,15.89
2018-08-19T05:02:20.161Z,16.38
2018-08-19T05:04:48.195Z,17.24
2018-08-19T05:07:16.298Z,17.50
2018-08-19T05:09:44.454Z,17.93
2018-08-19T05:12:12.645Z,18.72
2018-08-19T05:14:40.747Z,19.27
2018-08-19T05:17:08.892Z,19.34
2018-08-19T05:19:37.054Z,19.35
2018-08-19T05:22:10.682Z,18.78
2018-08-19T05:24:39.396Z,18.28
2018-08-19T05:27:08.413Z,17.71
2018-08-19T05:29:36.741Z,17.64
2018-08-19T05:32:05.144Z,18.54
2018-08-19T05:34:36.492Z,19.01
2018-08-19T05:37:04.993Z,19.63
2018-08-19T05:39:33.144Z,20.51
2018-08-19T05:42:13.220Z,21.64
2018-08-19T05:44:41.913Z,22.70
2018-08-19T05:47:11.145Z,23.59
2018-08-19T05:49:42.266Z,21.89
2018-08-19T05:52:15.633Z,20.41
2018-08-19T05:54:47.969Z,19.49
2018-08-19T05:57:17.838Z,19.54
2018-08-19T05:59:46.979Z,19.77
2018-08-19T06:02:15.160Z,19.92
2018-08-19T06:04:43.618Z,19.74
2018-08-19T06:07:11.732Z,19.29
2018-08-19T06:09:39.841Z,19.01
2018-08-19T06:12:07.983Z,18.89
2018-08-19T06:14:36.105Z,18.59
2018-08-19T06:17:05.120Z,18.62
2018-08-19T06:19:33.913Z,18.63
2018-08-19T06:22:02.207Z,18.54
2018-08-19T06:24:30.411Z,18.58
2018-08-19T06:26:58.482Z,18.60
2018-08-19T06:29:44.873Z,18.54
2018-08-19T06:32:20.843Z,18.63
2018-08-19T06:34:49.707Z,18.63
2018-08-19T06:37:18.107Z,18.58
2018-08-19T06:39:46.281Z,18.38
2018-08-19T06:42:14.377Z,18.45
2018-08-19T06:44:42.485Z,18.37
2018-08-19T06:47:10.667Z,18.34
2018-08-19T06:49:44.946Z,18.37
2018-08-19T06:52:13.145Z,18.41
2018-08-19T06:54:41.241Z,18.33
2018-08-19T06:57:10.176Z,18.45
2018-08-19T06:59:38.655Z,18.53
2018-08-19T07:02:07.653Z,18.48
2018-08-19T07:04:40.300Z,18.74
2018-08-19T07:07:10.263Z,18.75
2018-08-19T07:09:39.394Z,18.72
2018-08-19T07:12:11.633Z,18.82
2018-08-19T07:14:39.787Z,18.86
2018-08-19T07:17:07.944Z,18.80
2018-08-19T07:19:36.869Z,18.98
2018-08-19T07:22:06.307Z,19.12
2018-08-19T07:24:35.780Z,19.12
2018-08-19T07:27:03.935Z,19.07
2018-08-19T07:29:32.498Z,19.39
2018-08-19T07:32:00.601Z,19.37
2018-08-19T07:34:28.726Z,19.51
2018-08-19T07:36:58.066Z,19.74
2018-08-19T07:39:26.817Z,20.19
2018-08-19T07:41:55.092Z,20.49
2018-08-19T07:44:23.248Z,20.97
2018-08-19T07:46:51.358Z,21.07
2018-08-19T07:49:19.698Z,21.40
2018-08-19T07:51:47.842Z,20.94
2018-08-19T07:54:16.013Z,21.32
2018-08-19T07:56:44.179Z,21.20
2018-08-19T07:59:14.105Z,21.19
2018-08-19T08:01:42.307Z,21.22
2018-08-19T08:04:10.772Z,21.27
2018-08-19T08:06:38.922Z,21.30
2018-08-19T08:09:09.335Z,21.40
2018-08-19T08:11:37.477Z,21.45
2018-08-19T08:14:05.941Z,21.53
2018-08-19T08:16:41.575Z,21.28
2018-08-19T08:19:09.809Z,21.25
2018-08-19T08:21:38.090Z,21.17
2018-08-19T08:24:06.816Z,21.11
2018-08-19T08:26:37.509Z,20.80
2018-08-19T08:29:05.848Z,20.79
2018-08-19T08:31:41.021Z,20.74
2018-08-19T08:34:09.222Z,20.96
2018-08-19T08:36:37.356Z,20.86
2018-08-19T08:39:07.167Z,21.04
2018-08-19T08:41:35.321Z,20.98
2018-08-19T08:44:03.663Z,21.09
2018-08-19T08:46:31.817Z,21.28
2018-08-19T08:48:59.983Z,21.50
2018-08-19T08:51:28.106Z,21.40
2018-08-19T08:53:56.724Z,21.58
2018-08-19T08:56:25.016Z,21.64
2018-08-19T08:58:53.178Z,21.38
2018-08-19T09:01:21.303Z,21.43
2018-08-19T09:03:49.413Z,21.45
2018-08-19T09:06:22.938Z,21.50
2018-08-19T09:08:51.072Z,21.46
2018-08-19T09:11:19.195Z,21.37
2018-08-19T09:13:47.439Z,21.38
2018-08-19T09:16:15.586Z,21.44
2018-08-19T09:18:43.768Z,21.63
2018-08-19T09:21:11.962Z,21.76
2018-08-19T09:23:40.100Z,21.85
2018-08-19T09:26:08.350Z,21.98
2018-08-19T09:28:36.457Z,22.05
2018-08-19T09:31:04.759Z,21.93
2018-08-19T09:33:33.604Z,22.05
2018-08-19T09:36:01.739Z,22.11
2018-08-19T09:38:29.904Z,21.99
2018-08-19T09:40:58.144Z,22.09
2018-08-19T09:43:26.313Z,22.17
2018-08-19T09:45:54.483Z,22.18
2018-08-19T09:48:22.601Z,22.22
2018-08-19T09:50:50.700Z,22.40
2018-08-19T09:53:18.807Z,22.52
2018-08-19T09:56:19.771Z,22.39
2018-08-19T09:58:52.113Z,22.35
2018-08-19T10:01:25.568Z,22.41
2018-08-19T10:03:53.717Z,22.19
2018-08-19T10:06:21.867Z,22.44
2018-08-19T10:08:49.969Z,22.50
2018-08-19T10:11:18.117Z,22.79
2018-08-19T10:13:48.549Z,22.67
2018-08-19T10:16:16.753Z,22.59
2018-08-19T10:18:44.952Z,22.47
2018-08-19T10:21:18.307Z,22.35
2018-08-19T10:23:46.434Z,22.28
2018-08-19T10:26:14.602Z,22.33
2018-08-19T10:28:42.717Z,22.37
2018-08-19T10:31:16.315Z,22.37
2018-08-19T10:33:44.559Z,22.66
2018-08-19T10:36:12.681Z,22.62
2018-08-19T10:38:40.839Z,22.59
2018-08-19T10:41:08.949Z,22.52
2018-08-19T10:43:37.093Z,22.45
2018-08-19T10:46:05.285Z,22.60
2018-08-19T10:48:33.370Z,22.81
2018-08-19T10:51:02.626Z,22.92
2018-08-19T10:53:30.765Z,22.84
2018-08-19T10:56:01.648Z,22.68
2018-08-19T10:58:29.742Z,22.59
2018-08-19T11:00:57.874Z,22.83
2018-08-19T11:03:26.042Z,22.91
2018-08-19T11:05:55.473Z,22.78
2018-08-19T11:08:23.614Z,23.14
2018-08-19T11:10:51.728Z,22.97
2018-08-19T11:13:21.477Z,22.95
2018-08-19T11:15:55.649Z,23.07
2018-08-19T11:18:27.755Z,23.26
2018-08-19T11:21:59.549Z,23.05
2018-08-19T11:24:28.031Z,23.37
2018-08-19T11:27:01.222Z,23.52
2018-08-19T11:29:29.664Z,23.66
2018-08-19T11:31:57.775Z,23.56
2018-08-19T11:34:25.894Z,23.65
2018-08-19T11:36:54.019Z,23.76
2018-08-19T11:39:28.622Z,23.84
2018-08-19T11:41:58.485Z,23.95
2018-08-19T11:44:26.728Z,23.86
2018-08-19T11:46:54.848Z,23.94
2018-08-19T11:49:22.979Z,24.04
2018-08-19T11:52:00.415Z,24.18
2018-08-19T11:54:29.218Z,24.03
2018-08-19T11:57:03.719Z,23.99
2018-08-19T11:59:40.117Z,23.77
2018-08-19T12:02:10.659Z,24.05
2018-08-19T12:04:38.838Z,24.19
2018-08-19T12:07:06.985Z,24.13
2018-08-19T12:09:35.272Z,24.09
2018-08-19T12:12:03.451Z,24.26
2018-08-19T12:14:33.168Z,24.42
2018-08-19T12:17:01.991Z,24.55
2018-08-19T12:19:32.300Z,24.78
2018-08-19T12:22:02.617Z,24.55
2018-08-19T12:24:42.589Z,24.47
2018-08-19T12:27:12.090Z,24.73
2018-08-19T12:29:41.361Z,24.71
2018-08-19T12:32:16.152Z,24.58
2018-08-19T12:34:46.305Z,24.75
2018-08-19T12:37:15.568Z,25.05
2018-08-19T12:39:43.696Z,24.97
2018-08-19T12:42:11.876Z,25.02
2018-08-19T12:44:40.404Z,25.03
2018-08-19T12:47:18.202Z,24.92
2018-08-19T12:49:48.934Z,24.98
2018-08-19T12:52:19.155Z,24.94
2018-08-19T12:55:23.595Z,25.23
2018-08-19T12:57:57.204Z,25.27
2018-08-19T13:00:26.370Z,25.27
2018-08-19T13:02:54.729Z,24.93
2018-08-19T13:05:23.227Z,24.90
2018-08-19T13:07:51.519Z,24.70
2018-08-19T13:10:19.972Z,24.78
2018-08-19T13:12:56.575Z,24.88
2018-08-19T13:15:26.165Z,25.06
2018-08-19T13:17:54.330Z,24.94
2018-08-19T13:20:22.461Z,24.50
2018-08-19T13:22:55.883Z,24.70
2018-08-19T13:25:24.731Z,24.68
2018-08-19T13:27:52.886Z,24.78
2018-08-19T13:30:21.596Z,24.84
2018-08-19T13:32:50.425Z,25.05
2018-08-19T13:35:18.728Z,25.12
2018-08-19T13:37:46.911Z,24.97
2018-08-19T13:40:15.120Z,24.98
2018-08-19T13:42:43.395Z,25.08
2018-08-19T13:45:14.208Z,25.15
2018-08-19T13:47:43.653Z,25.35
2018-08-19T13:50:11.983Z,25.18
2018-08-19T13:52:40.542Z,25.09
2018-08-19T13:55:12.127Z,25.11
2018-08-19T13:57:40.253Z,25.31
2018-08-19T14:00:12.169Z,25.45
2018-08-19T14:02:40.318Z,25.68
2018-08-19T14:05:08.449Z,25.86
2018-08-19T14:07:36.590Z,25.94
2018-08-19T14:10:06.149Z,25.98
2018-08-19T14:12:34.313Z,25.88
2018-08-19T14:15:02.453Z,25.93
2018-08-19T14:17:30.597Z,25.93
2018-08-19T14:19:58.773Z,26.06
2018-08-19T14:22:27.593Z,26.10
2018-08-19T14:24:55.747Z,26.10
2018-08-19T14:27:24.865Z,26.19
2018-08-19T14:29:53.026Z,26.34
2018-08-19T14:32:32.501Z,26.25
2018-08-19T14:35:02.010Z,26.21
2018-08-19T14:37:30.643Z,26.29
2018-08-19T14:39:59.728Z,26.22
2018-08-19T14:42:27.861Z,26.23
2018-08-19T14:44:56.851Z,26.33
2018-08-19T14:47:25.154Z,26.30
2018-08-19T14:49:53.640Z,26.38
2018-08-19T14:52:21.778Z,26.26
2018-08-19T14:54:49.925Z,26.15
2018-08-19T14:57:18.045Z,26.19
2018-08-19T14:59:46.194Z,26.36
2018-08-19T15:02:14.323Z,26.32
2018-08-19T15:04:43.421Z,26.19
2018-08-19T15:07:11.654Z,26.26
2018-08-19T15:09:39.858Z,26.34
2018-08-19T15:12:14.334Z,26.38
2018-08-19T15:14:42.896Z,26.25
2018-08-19T15:17:11.588Z,26.31
2018-08-19T15:19:43.447Z,26.29
2018-08-19T15:22:11.582Z,26.29
2018-08-19T15:24:39.738Z,26.35
2018-08-19T15:27:07.915Z,26.27
2018-08-19T15:29:39.861Z,26.12
2018-08-19T15:32:08.101Z,26.19
2018-08-19T15:34:36.305Z,26.13
2018-08-19T15:37:04.462Z,26.09
2018-08-19T15:39:32.602Z,25.90
2018-08-19T15:42:00.757Z,25.94
2018-08-19T15:44:28.999Z,25.95
2018-08-19T15:46:57.156Z,25.95
2018-08-19T15:49:25.372Z,25.86
2018-08-19T15:51:53.689Z,25.75
2018-08-19T15:54:21.937Z,25.71
2018-08-19T15:56:50.044Z,25.60
2018-08-19T15:59:18.220Z,25.65
2018-08-19T16:01:46.345Z,25.58
2018-08-19T16:04:19.710Z,25.53
2018-08-19T16:06:49.090Z,25.57
2018-08-19T16:09:19.026Z,25.47
2018-08-19T16:11:47.809Z,25.45
2018-08-19T16:14:24.417Z,25.35
2018-08-19T16:16:53.259Z,25.28
2018-08-19T16:19:21.457Z,25.22
2018-08-19T16:21:51.764Z,25.24
2018-08-19T16:24:19.926Z,25.26
2018-08-19T16:26:48.956Z,25.04
2018-08-19T16:29:17.158Z,24.97
2018-08-19T16:31:45.482Z,24.85
2018-08-19T16:34:13.773Z,24.90
2018-08-19T16:36:41.941Z,24.86
2018-08-19T16:39:12.608Z,24.79
2018-08-19T16:41:40.719Z,24.78
2018-08-19T16:44:09.172Z,24.76
2018-08-19T16:46:37.368Z,24.70
2018-08-19T16:49:06.145Z,24.86
2018-08-19T16:51:34.355Z,24.77
2018-08-19T16:54:02.708Z,24.74
2018-08-19T16:56:31.009Z,24.55
2018-08-19T16:58:59.488Z,24.49
2018-08-19T17:01:27.727Z,24.44
2018-08-19T17:03:56.511Z,24.44
2018-08-19T17:06:25.505Z,24.39
2018-08-19T17:08:53.677Z,24.38
2018-08-19T17:11:21.848Z,24.38
2018-08-19T17:13:49.984Z,24.26
2018-08-19T17:16:18.111Z,24.24
2018-08-19T17:18:47.366Z,24.05
2018-08-19T17:21:15.508Z,24.07
2018-08-19T17:23:47.573Z,24.01
2018-08-19T17:26:18.793Z,24.02
2018-08-19T17:28:46.857Z,23.97
2018-08-19T17:31:15.019Z,23.86
2018-08-19T17:33:43.176Z,23.70
2018-08-19T17:36:11.325Z,23.71
2018-08-19T17:38:39.485Z,23.62
2018-08-19T17:41:07.604Z,23.48
2018-08-19T17:43:42.171Z,23.38
2018-08-19T17:46:13.289Z,23.37
2018-08-19T17:48:42.337Z,23.34
2018-08-19T17:51:23.102Z,23.29
2018-08-19T17:53:51.352Z,23.17
2018-08-19T17:56:19.744Z,23.13
2018-08-19T17:58:48.528Z,23.15
2018-08-19T18:01:17.022Z,23.19
2018-08-19T18:03:45.177Z,23.13
2018-08-19T18:06:13.345Z,23.06
2018-08-19T18:08:45.645Z,23.08
2018-08-19T18:11:13.797Z,23.01
2018-08-19T18:13:41.982Z,22.96
2018-08-19T18:16:10.134Z,22.94
2018-08-19T18:18:38.257Z,22.85
2018-08-19T18:21:06.435Z,22.74
2018-08-19T18:23:34.605Z,22.65
2018-08-19T18:26:02.757Z,22.57
2018-08-19T18:28:31.994Z,22.51
2018-08-19T18:31:09.295Z,22.60
2018-08-19T18:33:50.995Z,22.47
2018-08-19T18:36:20.481Z,22.34
2018-08-19T18:38:48.662Z,22.34
2018-08-19T18:41:25.091Z,22.31
2018-08-19T18:43:56.701Z,22.10
2018-08-19T18:46:25.171Z,22.01
2018-08-19T18:49:01.538Z,21.93
2018-08-19T18:51:30.742Z,21.86
2018-08-19T18:53:59.142Z,21.85
2018-08-19T18:56:28.337Z,21.76
2018-08-19T18:58:56.505Z,21.64
2018-08-19T19:01:24.637Z,21.59
2018-08-19T19:03:52.825Z,21.52
2018-08-19T19:06:20.998Z,21.41
2018-08-19T19:08:49.108Z,21.31
2018-08-19T19:11:20.072Z,21.20
2018-08-19T19:13:48.374Z,21.17
2018-08-19T19:16:18.672Z,21.09
2018-08-19T19:18:46.817Z,20.90
2018-08-19T19:21:14.934Z,20.86
2018-08-19T19:23:44.343Z,20.75
2018-08-19T19:26:12.500Z,20.72
2018-08-19T19:28:40.626Z,20.61
2018-08-19T19:31:16.037Z,20.55
2018-08-19T19:33:44.145Z,20.48
2018-08-19T19:36:18.313Z,20.43
2018-08-19T19:38:51.917Z,20.37
2018-08-19T19:41:23.065Z,20.34
2018-08-19T19:43:51.240Z,20.29
2018-08-19T19:46:19.394Z,20.27
2018-08-19T19:48:47.703Z,20.18
2018-08-19T19:51:15.838Z,20.14
2018-08-19T19:53:44.026Z,20.05
2018-08-19T19:56:13.187Z,20.03
2018-08-19T19:58:42.276Z,19.95
2018-08-19T20:01:10.431Z,19.92
2018-08-19T20:03:46.647Z,19.88
2018-08-19T20:06:14.796Z,19.83
2018-08-19T20:08:42.940Z,19.83
2018-08-19T20:11:19.254Z,19.76
2018-08-19T20:13:47.713Z,19.70
2018-08-19T20:16:15.871Z,19.68
2018-08-19T20:18:44.012Z,19.63
2018-08-19T20:21:17.542Z,19.59
2018-08-19T20:23:45.677Z,19.57
2018-08-19T20:26:13.863Z,19.56
2018-08-19T20:28:42.000Z,19.53
2018-08-19T20:31:10.173Z,19.51
2018-08-19T20:33:38.313Z,19.52
2018-08-19T20:36:06.435Z,19.51
2018-08-19T20:38:34.552Z,19.45
2018-08-19T20:41:02.672Z,19.42
2018-08-19T20:43:30.800Z,19.37
2018-08-19T20:45:58.943Z,19.30
2018-08-19T20:48:27.069Z,19.25
2018-08-19T20:50:55.213Z,19.17
2018-08-19T20:53:23.336Z,19.14
2018-08-19T20:55:51.468Z,19.10
2018-08-19T20:58:19.593Z,19.05
2018-08-19T21:00:47.704Z,19.00
2018-08-19T21:03:15.835Z,18.98
2018-08-19T21:05:43.947Z,18.96
2018-08-19T21:08:13.817Z,18.96
2018-08-19T21:10:43.800Z,18.98
2018-08-19T21:13:13.401Z,19.02
2018-08-19T21:15:46.837Z,19.09
2018-08-19T21:18:14.986Z,19.15
2018-08-19T21:20:43.520Z,19.19
2018-08-19T21:23:11.832Z,19.24
2018-08-19T21:25:59.863Z,19.31
2018-08-19T21:28:28.105Z,19.31
2018-08-19T21:30:56.316Z,19.41
2018-08-19T21:33:24.472Z,19.44
2018-08-19T21:35:54.097Z,19.49
2018-08-19T21:38:22.223Z,19.54
2018-08-19T21:40:53.924Z,19.59
2018-08-19T21:43:25.885Z,19.64
2018-08-19T21:45:53.997Z,19.69
2018-08-19T21:48:22.117Z,19.71
2018-08-19T21:50:50.282Z,19.85
2018-08-19T21:53:19.324Z,19.81
2018-08-19T21:55:48.730Z,19.90
2018-08-19T21:58:16.889Z,19.89
2018-08-19T22:00:48.224Z,19.90
2018-08-19T22:03:21.944Z,19.82
2018-08-19T22:05:52.292Z,19.80
2018-08-19T22:08:22.213Z,19.76
2018-08-19T22:10:50.367Z,19.74
2018-08-19T22:13:18.505Z,19.81
2018-08-19T22:15:47.257Z,19.89
2018-08-19T22:18:19.761Z,19.90
2018-08-19T22:21:02.137Z,19.89
2018-08-19T22:23:35.304Z,19.90
2018-08-19T22:26:03.457Z,19.91
2018-08-19T22:28:31.761Z,19.93
2018-08-19T22:31:10.005Z,20.04
2018-08-19T22:33:38.440Z,19.99
2018-08-19T22:36:06.597Z,19.98
2018-08-19T22:38:34.745Z,19.99
2018-08-19T22:41:02.878Z,20.01
2018-08-19T22:43:31.030Z,20.08
2018-08-19T22:45:59.183Z,20.15
2018-08-19T22:48:37.393Z,20.10
2018-08-19T22:51:06.065Z,20.15
2018-08-19T22:53:34.206Z,20.21
2018-08-19T22:56:02.486Z,20.17
2018-08-19T22:58:30.607Z,20.16
2018-08-19T23:00:58.767Z,20.13
2018-08-19T23:03:27.178Z,20.24
2018-08-19T23:05:55.365Z,20.18
2018-08-19T23:08:27.853Z,20.20
2018-08-19T23:10:57.656Z,20.29
2018-08-19T23:13:37.343Z,20.27
2018-08-19T23:16:07.524Z,20.32
2018-08-19T23:18:36.057Z,20.33
2018-08-19T23:21:04.246Z,20.36
2018-08-19T23:23:32.666Z,20.34
2018-08-19T23:26:00.933Z,20.33
2018-08-19T23:28:29.054Z,20.38
2018-08-19T23:30:57.635Z,20.38
2018-08-19T23:33:25.761Z,20.38
2018-08-19T23:35:53.970Z,20.38
2018-08-19T23:38:22.149Z,20.37
2018-08-19T23:40:50.333Z,20.38
2018-08-19T23:43:18.605Z,20.39
2018-08-19T23:45:46.770Z,20.40
2018-08-19T23:48:14.918Z,20.32
2018-08-19T23:50:43.047Z,20.29
2018-08-19T23:53:12.220Z,20.27
2018-08-19T23:55:40.775Z,20.30
2018-08-19T23:58:09.152Z,20.32
